sensor_id;sensor_type;location;lat;lon;timestamp;P1;durP1;ratioP1;P2;durP2;ratioP2
40162;SDS011;25881;47.462;19.304;2023-08-06T00:00:38;36.13;;;25.98;;
40162;SDS011;25881;47.462;19.304;2023-08-06T00:03:04;38.70;;;28.05;;
40162;SDS011;25881;47.462;19.304;2023-08-06T00:05:29;38.47;;;28.13;;
40162;SDS011;25881;47.462;19.304;2023-08-06T00:07:54;39.60;;;27.27;;
40162;SDS011;25881;47.462;19.304;2023-08-06T00:10:19;39.00;;;28.30;;
40162;SDS011;25881;47.462;19.304;2023-08-06T00:12:45;40.73;;;28.07;;
40162;SDS011;25881;47.462;19.304;2023-08-06T00:15:10;38.57;;;25.93;;
40162;SDS011;25881;47.462;19.304;2023-08-06T00:17:35;32.83;;;25.08;;
40162;SDS011;25881;47.462;19.304;2023-08-06T00:20:01;40.93;;;27.07;;
40162;SDS011;25881;47.462;19.304;2023-08-06T00:22:37;34.15;;;24.35;;
40162;SDS011;25881;47.462;19.304;2023-08-06T00:25:03;30.90;;;24.13;;
40162;SDS011;25881;47.462;19.304;2023-08-06T00:27:28;28.05;;;21.17;;
40162;SDS011;25881;47.462;19.304;2023-08-06T00:29:54;31.35;;;22.27;;
40162;SDS011;25881;47.462;19.304;2023-08-06T00:32:19;25.10;;;18.17;;
40162;SDS011;25881;47.462;19.304;2023-08-06T00:34:44;22.85;;;18.00;;
40162;SDS011;25881;47.462;19.304;2023-08-06T00:37:10;22.42;;;17.52;;
40162;SDS011;25881;47.462;19.304;2023-08-06T00:39:35;23.33;;;18.20;;
40162;SDS011;25881;47.462;19.304;2023-08-06T00:42:00;22.13;;;17.20;;
40162;SDS011;25881;47.462;19.304;2023-08-06T00:44:25;23.57;;;17.37;;
40162;SDS011;25881;47.462;19.304;2023-08-06T00:46:51;22.27;;;16.97;;
40162;SDS011;25881;47.462;19.304;2023-08-06T00:49:16;22.30;;;18.00;;
40162;SDS011;25881;47.462;19.304;2023-08-06T00:51:42;22.05;;;16.95;;
40162;SDS011;25881;47.462;19.304;2023-08-06T00:54:07;24.88;;;18.35;;
40162;SDS011;25881;47.462;19.304;2023-08-06T00:56:33;22.80;;;17.63;;
40162;SDS011;25881;47.462;19.304;2023-08-06T00:59:00;23.90;;;18.08;;
40162;SDS011;25881;47.462;19.304;2023-08-06T01:01:26;24.50;;;19.33;;
40162;SDS011;25881;47.462;19.304;2023-08-06T01:03:51;24.37;;;19.33;;
40162;SDS011;25881;47.462;19.304;2023-08-06T01:06:16;22.42;;;17.52;;
40162;SDS011;25881;47.462;19.304;2023-08-06T01:08:58;23.08;;;17.77;;
40162;SDS011;25881;47.462;19.304;2023-08-06T01:13:58;20.75;;;15.23;;
40162;SDS011;25881;47.462;19.304;2023-08-06T01:16:26;23.20;;;15.55;;
40162;SDS011;25881;47.462;19.304;2023-08-06T01:18:51;18.85;;;13.52;;
40162;SDS011;25881;47.462;19.304;2023-08-06T01:21:17;20.17;;;15.30;;
40162;SDS011;25881;47.462;19.304;2023-08-06T01:23:42;24.23;;;17.42;;
40162;SDS011;25881;47.462;19.304;2023-08-06T01:31:27;19.70;;;15.00;;
40162;SDS011;25881;47.462;19.304;2023-08-06T01:33:55;17.98;;;15.07;;
40162;SDS011;25881;47.462;19.304;2023-08-06T01:36:21;24.10;;;16.35;;
40162;SDS011;25881;47.462;19.304;2023-08-06T01:38:47;17.83;;;14.52;;
40162;SDS011;25881;47.462;19.304;2023-08-06T01:41:12;20.48;;;15.25;;
40162;SDS011;25881;47.462;19.304;2023-08-06T01:43:37;20.10;;;15.83;;
40162;SDS011;25881;47.462;19.304;2023-08-06T01:46:03;20.17;;;15.63;;
40162;SDS011;25881;47.462;19.304;2023-08-06T01:48:28;20.90;;;15.57;;
40162;SDS011;25881;47.462;19.304;2023-08-06T01:50:53;19.57;;;15.73;;
40162;SDS011;25881;47.462;19.304;2023-08-06T01:53:18;17.67;;;15.53;;
40162;SDS011;25881;47.462;19.304;2023-08-06T01:55:50;16.48;;;14.63;;
40162;SDS011;25881;47.462;19.304;2023-08-06T01:58:15;20.30;;;15.18;;
40162;SDS011;25881;47.462;19.304;2023-08-06T02:00:40;16.55;;;14.18;;
40162;SDS011;25881;47.462;19.304;2023-08-06T02:03:06;17.83;;;14.00;;
40162;SDS011;25881;47.462;19.304;2023-08-06T02:05:31;14.95;;;13.20;;
40162;SDS011;25881;47.462;19.304;2023-08-06T02:07:56;18.67;;;13.77;;
40162;SDS011;25881;47.462;19.304;2023-08-06T02:10:22;16.55;;;14.75;;
40162;SDS011;25881;47.462;19.304;2023-08-06T02:12:47;16.67;;;13.77;;
40162;SDS011;25881;47.462;19.304;2023-08-06T02:15:12;17.23;;;13.73;;
40162;SDS011;25881;47.462;19.304;2023-08-06T02:17:37;16.97;;;12.87;;
40162;SDS011;25881;47.462;19.304;2023-08-06T02:20:03;14.83;;;12.53;;
40162;SDS011;25881;47.462;19.304;2023-08-06T02:22:28;19.92;;;15.00;;
40162;SDS011;25881;47.462;19.304;2023-08-06T02:24:53;19.77;;;14.90;;
40162;SDS011;25881;47.462;19.304;2023-08-06T02:27:18;18.63;;;14.57;;
40162;SDS011;25881;47.462;19.304;2023-08-06T02:29:43;16.23;;;13.37;;
40162;SDS011;25881;47.462;19.304;2023-08-06T02:32:09;19.45;;;13.63;;
40162;SDS011;25881;47.462;19.304;2023-08-06T02:34:35;17.93;;;13.20;;
40162;SDS011;25881;47.462;19.304;2023-08-06T02:37:00;18.83;;;13.23;;
40162;SDS011;25881;47.462;19.304;2023-08-06T02:39:25;16.07;;;11.77;;
40162;SDS011;25881;47.462;19.304;2023-08-06T02:41:50;12.70;;;10.23;;
40162;SDS011;25881;47.462;19.304;2023-08-06T02:44:16;14.83;;;11.20;;
40162;SDS011;25881;47.462;19.304;2023-08-06T02:46:41;11.90;;;9.60;;
40162;SDS011;25881;47.462;19.304;2023-08-06T02:49:06;10.05;;;8.20;;
40162;SDS011;25881;47.462;19.304;2023-08-06T02:51:31;14.27;;;9.17;;
40162;SDS011;25881;47.462;19.304;2023-08-06T02:53:57;11.70;;;9.17;;
40162;SDS011;25881;47.462;19.304;2023-08-06T02:56:22;12.17;;;9.47;;
40162;SDS011;25881;47.462;19.304;2023-08-06T02:58:47;14.73;;;9.87;;
40162;SDS011;25881;47.462;19.304;2023-08-06T03:01:13;13.90;;;10.20;;
40162;SDS011;25881;47.462;19.304;2023-08-06T03:03:39;13.35;;;10.00;;
40162;SDS011;25881;47.462;19.304;2023-08-06T03:06:04;13.50;;;9.97;;
40162;SDS011;25881;47.462;19.304;2023-08-06T03:08:29;14.95;;;10.57;;
40162;SDS011;25881;47.462;19.304;2023-08-06T03:10:54;13.40;;;10.57;;
40162;SDS011;25881;47.462;19.304;2023-08-06T03:13:20;14.47;;;10.77;;
40162;SDS011;25881;47.462;19.304;2023-08-06T03:15:55;14.68;;;10.35;;
40162;SDS011;25881;47.462;19.304;2023-08-06T03:18:20;16.10;;;10.25;;
40162;SDS011;25881;47.462;19.304;2023-08-06T03:20:46;14.55;;;10.95;;
40162;SDS011;25881;47.462;19.304;2023-08-06T03:23:11;12.93;;;10.25;;
40162;SDS011;25881;47.462;19.304;2023-08-06T03:25:37;15.27;;;11.60;;
40162;SDS011;25881;47.462;19.304;2023-08-06T03:28:02;16.97;;;11.37;;
40162;SDS011;25881;47.462;19.304;2023-08-06T03:30:27;14.70;;;11.90;;
40162;SDS011;25881;47.462;19.304;2023-08-06T03:32:52;14.07;;;12.17;;
40162;SDS011;25881;47.462;19.304;2023-08-06T03:35:18;15.00;;;11.47;;
40162;SDS011;25881;47.462;19.304;2023-08-06T03:37:43;13.60;;;12.07;;
40162;SDS011;25881;47.462;19.304;2023-08-06T03:40:08;15.53;;;12.60;;
40162;SDS011;25881;47.462;19.304;2023-08-06T03:42:34;14.43;;;11.68;;
40162;SDS011;25881;47.462;19.304;2023-08-06T03:44:59;15.63;;;12.57;;
40162;SDS011;25881;47.462;19.304;2023-08-06T03:47:24;15.13;;;12.30;;
40162;SDS011;25881;47.462;19.304;2023-08-06T03:49:49;15.20;;;12.70;;
40162;SDS011;25881;47.462;19.304;2023-08-06T03:52:14;15.53;;;12.67;;
40162;SDS011;25881;47.462;19.304;2023-08-06T03:54:40;17.83;;;12.57;;
40162;SDS011;25881;47.462;19.304;2023-08-06T03:57:05;14.60;;;11.55;;
40162;SDS011;25881;47.462;19.304;2023-08-06T03:59:31;14.68;;;10.52;;
40162;SDS011;25881;47.462;19.304;2023-08-06T04:01:56;14.30;;;9.90;;
40162;SDS011;25881;47.462;19.304;2023-08-06T04:04:21;13.27;;;11.03;;
40162;SDS011;25881;47.462;19.304;2023-08-06T04:06:46;16.97;;;13.33;;
40162;SDS011;25881;47.462;19.304;2023-08-06T04:09:11;17.77;;;14.50;;
40162;SDS011;25881;47.462;19.304;2023-08-06T04:11:38;20.48;;;13.77;;
40162;SDS011;25881;47.462;19.304;2023-08-06T04:14:03;19.60;;;14.03;;
40162;SDS011;25881;47.462;19.304;2023-08-06T04:16:28;16.25;;;13.15;;
40162;SDS011;25881;47.462;19.304;2023-08-06T04:18:54;15.88;;;12.02;;
40162;SDS011;25881;47.462;19.304;2023-08-06T04:21:20;13.88;;;11.90;;
40162;SDS011;25881;47.462;19.304;2023-08-06T04:23:45;16.03;;;11.23;;
40162;SDS011;25881;47.462;19.304;2023-08-06T04:26:10;14.53;;;10.50;;
40162;SDS011;25881;47.462;19.304;2023-08-06T04:28:36;15.70;;;9.60;;
40162;SDS011;25881;47.462;19.304;2023-08-06T04:31:01;14.00;;;9.17;;
40162;SDS011;25881;47.462;19.304;2023-08-06T04:33:26;13.10;;;10.17;;
40162;SDS011;25881;47.462;19.304;2023-08-06T04:35:54;12.57;;;8.87;;
40162;SDS011;25881;47.462;19.304;2023-08-06T04:38:23;13.43;;;9.10;;
40162;SDS011;25881;47.462;19.304;2023-08-06T04:40:48;11.43;;;8.18;;
40162;SDS011;25881;47.462;19.304;2023-08-06T04:43:14;10.80;;;8.30;;
40162;SDS011;25881;47.462;19.304;2023-08-06T04:45:45;10.93;;;7.70;;
40162;SDS011;25881;47.462;19.304;2023-08-06T04:48:10;10.98;;;7.65;;
40162;SDS011;25881;47.462;19.304;2023-08-06T04:50:35;11.10;;;8.73;;
40162;SDS011;25881;47.462;19.304;2023-08-06T04:53:01;11.70;;;8.23;;
40162;SDS011;25881;47.462;19.304;2023-08-06T04:55:26;10.70;;;8.10;;
40162;SDS011;25881;47.462;19.304;2023-08-06T04:57:51;9.47;;;8.10;;
40162;SDS011;25881;47.462;19.304;2023-08-06T05:00:16;12.67;;;7.93;;
40162;SDS011;25881;47.462;19.304;2023-08-06T05:02:41;11.97;;;7.83;;
40162;SDS011;25881;47.462;19.304;2023-08-06T05:05:07;9.30;;;7.53;;
40162;SDS011;25881;47.462;19.304;2023-08-06T05:07:32;11.27;;;8.73;;
40162;SDS011;25881;47.462;19.304;2023-08-06T05:09:57;9.93;;;8.10;;
40162;SDS011;25881;47.462;19.304;2023-08-06T05:12:22;10.03;;;8.43;;
40162;SDS011;25881;47.462;19.304;2023-08-06T05:14:48;10.57;;;7.83;;
40162;SDS011;25881;47.462;19.304;2023-08-06T05:17:13;16.40;;;9.53;;
40162;SDS011;25881;47.462;19.304;2023-08-06T05:19:38;11.93;;;9.40;;
40162;SDS011;25881;47.462;19.304;2023-08-06T05:22:03;13.10;;;9.57;;
40162;SDS011;25881;47.462;19.304;2023-08-06T05:24:29;13.68;;;9.10;;
40162;SDS011;25881;47.462;19.304;2023-08-06T05:26:54;11.83;;;8.07;;
40162;SDS011;25881;47.462;19.304;2023-08-06T05:29:19;9.37;;;6.13;;
40162;SDS011;25881;47.462;19.304;2023-08-06T05:31:44;8.80;;;5.30;;
40162;SDS011;25881;47.462;19.304;2023-08-06T05:34:10;7.57;;;5.07;;
40162;SDS011;25881;47.462;19.304;2023-08-06T05:36:35;7.07;;;5.03;;
40162;SDS011;25881;47.462;19.304;2023-08-06T05:39:00;7.03;;;5.10;;
40162;SDS011;25881;47.462;19.304;2023-08-06T05:41:25;8.60;;;5.00;;
40162;SDS011;25881;47.462;19.304;2023-08-06T05:43:52;8.07;;;4.93;;
40162;SDS011;25881;47.462;19.304;2023-08-06T05:46:17;8.27;;;4.97;;
40162;SDS011;25881;47.462;19.304;2023-08-06T05:48:42;5.17;;;3.97;;
40162;SDS011;25881;47.462;19.304;2023-08-06T05:51:07;7.53;;;4.70;;
40162;SDS011;25881;47.462;19.304;2023-08-06T05:53:33;7.63;;;3.93;;
40162;SDS011;25881;47.462;19.304;2023-08-06T05:55:58;6.93;;;3.23;;
40162;SDS011;25881;47.462;19.304;2023-08-06T05:58:23;4.33;;;3.13;;
40162;SDS011;25881;47.462;19.304;2023-08-06T06:00:51;5.15;;;2.90;;
40162;SDS011;25881;47.462;19.304;2023-08-06T06:03:16;4.38;;;2.65;;
40162;SDS011;25881;47.462;19.304;2023-08-06T06:05:41;2.60;;;2.10;;
40162;SDS011;25881;47.462;19.304;2023-08-06T06:08:07;4.80;;;2.67;;
40162;SDS011;25881;47.462;19.304;2023-08-06T06:10:32;3.50;;;2.03;;
40162;SDS011;25881;47.462;19.304;2023-08-06T06:12:57;2.80;;;2.10;;
40162;SDS011;25881;47.462;19.304;2023-08-06T06:15:22;2.70;;;1.73;;
40162;SDS011;25881;47.462;19.304;2023-08-06T06:17:47;2.13;;;1.80;;
40162;SDS011;25881;47.462;19.304;2023-08-06T06:20:13;2.60;;;1.60;;
40162;SDS011;25881;47.462;19.304;2023-08-06T06:22:38;2.63;;;1.30;;
40162;SDS011;25881;47.462;19.304;2023-08-06T06:25:03;2.40;;;1.50;;
40162;SDS011;25881;47.462;19.304;2023-08-06T06:27:29;2.15;;;1.20;;
40162;SDS011;25881;47.462;19.304;2023-08-06T06:29:54;2.63;;;0.90;;
40162;SDS011;25881;47.462;19.304;2023-08-06T06:32:20;2.10;;;0.97;;
40162;SDS011;25881;47.462;19.304;2023-08-06T06:34:45;1.95;;;0.70;;
40162;SDS011;25881;47.462;19.304;2023-08-06T06:37:10;0.77;;;0.47;;
40162;SDS011;25881;47.462;19.304;2023-08-06T06:39:35;0.80;;;0.50;;
40162;SDS011;25881;47.462;19.304;2023-08-06T06:42:00;1.03;;;0.63;;
40162;SDS011;25881;47.462;19.304;2023-08-06T06:44:26;2.23;;;0.60;;
40162;SDS011;25881;47.462;19.304;2023-08-06T06:46:51;2.93;;;0.60;;
40162;SDS011;25881;47.462;19.304;2023-08-06T06:49:16;0.40;;;0.40;;
40162;SDS011;25881;47.462;19.304;2023-08-06T06:51:41;1.25;;;0.65;;
40162;SDS011;25881;47.462;19.304;2023-08-06T06:54:07;0.40;;;0.40;;
40162;SDS011;25881;47.462;19.304;2023-08-06T06:56:32;0.57;;;0.37;;
40162;SDS011;25881;47.462;19.304;2023-08-06T06:58:57;1.87;;;0.57;;
40162;SDS011;25881;47.462;19.304;2023-08-06T07:01:22;2.03;;;0.70;;
40162;SDS011;25881;47.462;19.304;2023-08-06T07:03:47;0.40;;;0.40;;
40162;SDS011;25881;47.462;19.304;2023-08-06T07:06:13;1.03;;;0.50;;
40162;SDS011;25881;47.462;19.304;2023-08-06T07:08:38;0.75;;;0.75;;
40162;SDS011;25881;47.462;19.304;2023-08-06T07:11:04;0.50;;;0.50;;
40162;SDS011;25881;47.462;19.304;2023-08-06T07:13:30;0.80;;;0.60;;
40162;SDS011;25881;47.462;19.304;2023-08-06T07:15:55;1.88;;;0.60;;
40162;SDS011;25881;47.462;19.304;2023-08-06T07:18:21;0.57;;;0.57;;
40162;SDS011;25881;47.462;19.304;2023-08-06T07:20:50;0.73;;;0.63;;
40162;SDS011;25881;47.462;19.304;2023-08-06T07:23:15;0.77;;;0.77;;
40162;SDS011;25881;47.462;19.304;2023-08-06T07:25:41;1.47;;;0.90;;
40162;SDS011;25881;47.462;19.304;2023-08-06T07:28:06;1.83;;;0.90;;
40162;SDS011;25881;47.462;19.304;2023-08-06T07:30:31;1.77;;;0.90;;
40162;SDS011;25881;47.462;19.304;2023-08-06T07:32:57;1.13;;;1.05;;
40162;SDS011;25881;47.462;19.304;2023-08-06T07:35:22;1.13;;;1.03;;
40162;SDS011;25881;47.462;19.304;2023-08-06T07:37:47;0.80;;;0.80;;
40162;SDS011;25881;47.462;19.304;2023-08-06T07:40:13;1.20;;;1.03;;
40162;SDS011;25881;47.462;19.304;2023-08-06T07:42:38;1.13;;;1.02;;
40162;SDS011;25881;47.462;19.304;2023-08-06T07:45:04;1.73;;;1.10;;
40162;SDS011;25881;47.462;19.304;2023-08-06T07:47:31;0.90;;;0.90;;
40162;SDS011;25881;47.462;19.304;2023-08-06T07:49:57;0.93;;;0.93;;
40162;SDS011;25881;47.462;19.304;2023-08-06T07:52:22;2.70;;;0.90;;
40162;SDS011;25881;47.462;19.304;2023-08-06T07:54:47;2.60;;;1.20;;
40162;SDS011;25881;47.462;19.304;2023-08-06T07:57:12;1.93;;;0.90;;
40162;SDS011;25881;47.462;19.304;2023-08-06T07:59:39;1.20;;;1.10;;
40162;SDS011;25881;47.462;19.304;2023-08-06T08:02:04;0.90;;;0.90;;
40162;SDS011;25881;47.462;19.304;2023-08-06T08:04:30;0.98;;;0.88;;
40162;SDS011;25881;47.462;19.304;2023-08-06T08:06:55;1.17;;;1.00;;
40162;SDS011;25881;47.462;19.304;2023-08-06T08:09:21;1.07;;;0.80;;
40162;SDS011;25881;47.462;19.304;2023-08-06T08:11:46;3.97;;;0.80;;
40162;SDS011;25881;47.462;19.304;2023-08-06T08:14:12;4.00;;;0.80;;
40162;SDS011;25881;47.462;19.304;2023-08-06T08:16:37;2.57;;;1.07;;
40162;SDS011;25881;47.462;19.304;2023-08-06T08:19:02;0.73;;;0.73;;
40162;SDS011;25881;47.462;19.304;2023-08-06T08:21:29;0.85;;;0.75;;
40162;SDS011;25881;47.462;19.304;2023-08-06T08:23:54;0.90;;;0.70;;
40162;SDS011;25881;47.462;19.304;2023-08-06T08:26:19;1.33;;;0.90;;
40162;SDS011;25881;47.462;19.304;2023-08-06T08:28:44;0.83;;;0.40;;
40162;SDS011;25881;47.462;19.304;2023-08-06T08:31:10;1.27;;;0.40;;
40162;SDS011;25881;47.462;19.304;2023-08-06T08:33:36;1.52;;;0.50;;
40162;SDS011;25881;47.462;19.304;2023-08-06T08:36:01;0.47;;;0.45;;
40162;SDS011;25881;47.462;19.304;2023-08-06T08:38:27;2.08;;;0.40;;
40162;SDS011;25881;47.462;19.304;2023-08-06T08:40:53;0.40;;;0.37;;
40162;SDS011;25881;47.462;19.304;2023-08-06T08:43:20;0.30;;;0.30;;
40162;SDS011;25881;47.462;19.304;2023-08-06T08:45:45;0.98;;;0.32;;
40162;SDS011;25881;47.462;19.304;2023-08-06T08:48:14;1.40;;;0.40;;
40162;SDS011;25881;47.462;19.304;2023-08-06T08:50:40;0.30;;;0.30;;
40162;SDS011;25881;47.462;19.304;2023-08-06T08:53:06;0.30;;;0.30;;
40162;SDS011;25881;47.462;19.304;2023-08-06T08:55:31;0.30;;;0.30;;
40162;SDS011;25881;47.462;19.304;2023-08-06T08:57:56;0.28;;;0.28;;
40162;SDS011;25881;47.462;19.304;2023-08-06T09:00:22;0.93;;;0.30;;
40162;SDS011;25881;47.462;19.304;2023-08-06T09:02:47;0.20;;;0.20;;
40162;SDS011;25881;47.462;19.304;2023-08-06T09:05:12;0.20;;;0.20;;
40162;SDS011;25881;47.462;19.304;2023-08-06T09:07:47;0.52;;;0.45;;
40162;SDS011;25881;47.462;19.304;2023-08-06T09:10:13;0.40;;;0.40;;
40162;SDS011;25881;47.462;19.304;2023-08-06T09:12:42;0.30;;;0.30;;
40162;SDS011;25881;47.462;19.304;2023-08-06T09:15:08;0.30;;;0.30;;
40162;SDS011;25881;47.462;19.304;2023-08-06T09:17:33;0.40;;;0.30;;
40162;SDS011;25881;47.462;19.304;2023-08-06T09:19:58;0.53;;;0.30;;
40162;SDS011;25881;47.462;19.304;2023-08-06T09:22:24;2.15;;;0.30;;
40162;SDS011;25881;47.462;19.304;2023-08-06T09:24:49;0.30;;;0.30;;
40162;SDS011;25881;47.462;19.304;2023-08-06T09:27:15;1.00;;;0.40;;
40162;SDS011;25881;47.462;19.304;2023-08-06T09:29:41;0.40;;;0.40;;
40162;SDS011;25881;47.462;19.304;2023-08-06T09:32:06;0.32;;;0.32;;
40162;SDS011;25881;47.462;19.304;2023-08-06T09:34:32;0.38;;;0.38;;
40162;SDS011;25881;47.462;19.304;2023-08-06T09:36:57;0.50;;;0.30;;
40162;SDS011;25881;47.462;19.304;2023-08-06T09:39:29;0.23;;;0.23;;
40162;SDS011;25881;47.462;19.304;2023-08-06T09:41:58;0.28;;;0.28;;
40162;SDS011;25881;47.462;19.304;2023-08-06T09:44:24;0.30;;;0.30;;
40162;SDS011;25881;47.462;19.304;2023-08-06T09:46:51;0.20;;;0.20;;
40162;SDS011;25881;47.462;19.304;2023-08-06T09:49:19;0.55;;;0.40;;
40162;SDS011;25881;47.462;19.304;2023-08-06T09:51:46;0.30;;;0.30;;
40162;SDS011;25881;47.462;19.304;2023-08-06T09:54:12;1.33;;;0.43;;
40162;SDS011;25881;47.462;19.304;2023-08-06T09:56:37;0.45;;;0.30;;
40162;SDS011;25881;47.462;19.304;2023-08-06T09:59:06;0.40;;;0.30;;
40162;SDS011;25881;47.462;19.304;2023-08-06T10:01:32;1.63;;;0.50;;
40162;SDS011;25881;47.462;19.304;2023-08-06T10:03:58;0.52;;;0.40;;
40162;SDS011;25881;47.462;19.304;2023-08-06T10:06:24;0.82;;;0.60;;
40162;SDS011;25881;47.462;19.304;2023-08-06T10:08:49;0.85;;;0.50;;
40162;SDS011;25881;47.462;19.304;2023-08-06T10:11:15;0.98;;;0.40;;
40162;SDS011;25881;47.462;19.304;2023-08-06T10:13:42;1.48;;;0.40;;
40162;SDS011;25881;47.462;19.304;2023-08-06T10:16:07;0.50;;;0.50;;
40162;SDS011;25881;47.462;19.304;2023-08-06T10:18:32;0.67;;;0.67;;
40162;SDS011;25881;47.462;19.304;2023-08-06T10:20:59;0.60;;;0.60;;
40162;SDS011;25881;47.462;19.304;2023-08-06T10:23:35;1.20;;;0.60;;
40162;SDS011;25881;47.462;19.304;2023-08-06T10:26:03;0.68;;;0.60;;
40162;SDS011;25881;47.462;19.304;2023-08-06T10:28:37;0.70;;;0.70;;
40162;SDS011;25881;47.462;19.304;2023-08-06T10:31:03;1.02;;;0.68;;
40162;SDS011;25881;47.462;19.304;2023-08-06T10:33:44;0.40;;;0.40;;
40162;SDS011;25881;47.462;19.304;2023-08-06T10:36:09;1.10;;;0.60;;
40162;SDS011;25881;47.462;19.304;2023-08-06T10:38:46;0.77;;;0.60;;
40162;SDS011;25881;47.462;19.304;2023-08-06T10:43:49;2.25;;;1.10;;
40162;SDS011;25881;47.462;19.304;2023-08-06T10:46:26;0.40;;;0.40;;
40162;SDS011;25881;47.462;19.304;2023-08-06T10:48:51;0.60;;;0.50;;
40162;SDS011;25881;47.462;19.304;2023-08-06T10:51:17;0.75;;;0.75;;
40162;SDS011;25881;47.462;19.304;2023-08-06T10:53:46;0.70;;;0.60;;
40162;SDS011;25881;47.462;19.304;2023-08-06T10:56:12;0.70;;;0.60;;
40162;SDS011;25881;47.462;19.304;2023-08-06T10:58:39;1.67;;;0.70;;
40162;SDS011;25881;47.462;19.304;2023-08-06T11:01:04;0.60;;;0.60;;
40162;SDS011;25881;47.462;19.304;2023-08-06T11:03:29;1.95;;;0.50;;
40162;SDS011;25881;47.462;19.304;2023-08-06T11:05:56;0.50;;;0.50;;
40162;SDS011;25881;47.462;19.304;2023-08-06T11:08:25;1.17;;;0.90;;
40162;SDS011;25881;47.462;19.304;2023-08-06T11:10:50;0.63;;;0.63;;
40162;SDS011;25881;47.462;19.304;2023-08-06T11:13:18;1.17;;;0.50;;
40162;SDS011;25881;47.462;19.304;2023-08-06T11:15:45;1.45;;;0.60;;
40162;SDS011;25881;47.462;19.304;2023-08-06T11:18:10;1.05;;;0.70;;
40162;SDS011;25881;47.462;19.304;2023-08-06T11:20:36;1.73;;;0.55;;
40162;SDS011;25881;47.462;19.304;2023-08-06T11:23:01;0.60;;;0.60;;
40162;SDS011;25881;47.462;19.304;2023-08-06T11:25:26;0.50;;;0.50;;
40162;SDS011;25881;47.462;19.304;2023-08-06T11:27:51;2.30;;;0.50;;
40162;SDS011;25881;47.462;19.304;2023-08-06T11:30:17;1.90;;;0.70;;
40162;SDS011;25881;47.462;19.304;2023-08-06T11:32:45;0.70;;;0.70;;
40162;SDS011;25881;47.462;19.304;2023-08-06T11:35:12;1.02;;;0.60;;
40162;SDS011;25881;47.462;19.304;2023-08-06T11:37:38;2.10;;;0.50;;
40162;SDS011;25881;47.462;19.304;2023-08-06T11:40:06;1.27;;;0.57;;
40162;SDS011;25881;47.462;19.304;2023-08-06T11:44:58;0.88;;;0.65;;
40162;SDS011;25881;47.462;19.304;2023-08-06T11:47:23;0.47;;;0.47;;
40162;SDS011;25881;47.462;19.304;2023-08-06T11:49:48;3.20;;;0.70;;
40162;SDS011;25881;47.462;19.304;2023-08-06T11:52:21;1.00;;;0.60;;
40162;SDS011;25881;47.462;19.304;2023-08-06T11:55:01;1.42;;;0.65;;
40162;SDS011;25881;47.462;19.304;2023-08-06T11:57:32;1.38;;;0.90;;
40162;SDS011;25881;47.462;19.304;2023-08-06T12:02:30;0.63;;;0.60;;
40162;SDS011;25881;47.462;19.304;2023-08-06T12:05:03;1.30;;;0.70;;
40162;SDS011;25881;47.462;19.304;2023-08-06T12:07:30;1.02;;;0.82;;
40162;SDS011;25881;47.462;19.304;2023-08-06T12:09:56;1.17;;;0.68;;
40162;SDS011;25881;47.462;19.304;2023-08-06T12:12:21;0.60;;;0.60;;
40162;SDS011;25881;47.462;19.304;2023-08-06T12:14:47;0.43;;;0.43;;
40162;SDS011;25881;47.462;19.304;2023-08-06T12:17:12;0.70;;;0.70;;
40162;SDS011;25881;47.462;19.304;2023-08-06T12:19:37;0.87;;;0.73;;
40162;SDS011;25881;47.462;19.304;2023-08-06T12:22:03;1.47;;;0.70;;
40162;SDS011;25881;47.462;19.304;2023-08-06T12:24:29;0.80;;;0.60;;
40162;SDS011;25881;47.462;19.304;2023-08-06T12:26:56;1.75;;;0.75;;
40162;SDS011;25881;47.462;19.304;2023-08-06T12:29:22;2.05;;;0.68;;
40162;SDS011;25881;47.462;19.304;2023-08-06T12:31:48;0.88;;;0.70;;
40162;SDS011;25881;47.462;19.304;2023-08-06T12:34:13;1.30;;;0.90;;
40162;SDS011;25881;47.462;19.304;2023-08-06T12:36:39;0.95;;;0.80;;
40162;SDS011;25881;47.462;19.304;2023-08-06T12:39:04;2.20;;;0.80;;
40162;SDS011;25881;47.462;19.304;2023-08-06T12:41:29;1.80;;;0.93;;
40162;SDS011;25881;47.462;19.304;2023-08-06T12:43:54;0.90;;;0.80;;
40162;SDS011;25881;47.462;19.304;2023-08-06T12:46:20;0.87;;;0.67;;
40162;SDS011;25881;47.462;19.304;2023-08-06T12:48:45;0.80;;;0.63;;
40162;SDS011;25881;47.462;19.304;2023-08-06T12:51:10;1.63;;;0.90;;
40162;SDS011;25881;47.462;19.304;2023-08-06T12:53:35;2.70;;;1.00;;
40162;SDS011;25881;47.462;19.304;2023-08-06T12:56:01;3.43;;;0.97;;
40162;SDS011;25881;47.462;19.304;2023-08-06T12:58:26;0.93;;;0.93;;
40162;SDS011;25881;47.462;19.304;2023-08-06T13:00:51;2.40;;;0.87;;
40162;SDS011;25881;47.462;19.304;2023-08-06T13:03:16;2.28;;;0.90;;
40162;SDS011;25881;47.462;19.304;2023-08-06T13:05:42;2.33;;;1.02;;
40162;SDS011;25881;47.462;19.304;2023-08-06T13:08:09;2.05;;;1.25;;
40162;SDS011;25881;47.462;19.304;2023-08-06T13:10:34;2.60;;;1.15;;
40162;SDS011;25881;47.462;19.304;2023-08-06T13:13:00;2.67;;;1.10;;
40162;SDS011;25881;47.462;19.304;2023-08-06T13:15:26;1.48;;;0.90;;
40162;SDS011;25881;47.462;19.304;2023-08-06T13:17:51;1.95;;;1.30;;
40162;SDS011;25881;47.462;19.304;2023-08-06T13:20:17;2.65;;;1.10;;
40162;SDS011;25881;47.462;19.304;2023-08-06T13:22:44;0.98;;;0.93;;
40162;SDS011;25881;47.462;19.304;2023-08-06T13:25:11;2.05;;;1.40;;
40162;SDS011;25881;47.462;19.304;2023-08-06T13:27:37;1.58;;;1.20;;
40162;SDS011;25881;47.462;19.304;2023-08-06T13:30:02;1.40;;;1.20;;
40162;SDS011;25881;47.462;19.304;2023-08-06T13:32:28;1.95;;;1.60;;
40162;SDS011;25881;47.462;19.304;2023-08-06T13:34:53;2.58;;;1.30;;
40162;SDS011;25881;47.462;19.304;2023-08-06T13:37:19;1.60;;;1.50;;
40162;SDS011;25881;47.462;19.304;2023-08-06T13:39:44;2.85;;;1.50;;
40162;SDS011;25881;47.462;19.304;2023-08-06T13:42:09;3.22;;;1.70;;
40162;SDS011;25881;47.462;19.304;2023-08-06T13:44:35;5.07;;;1.60;;
40162;SDS011;25881;47.462;19.304;2023-08-06T13:47:01;2.28;;;1.63;;
40162;SDS011;25881;47.462;19.304;2023-08-06T13:49:27;1.73;;;1.40;;
40162;SDS011;25881;47.462;19.304;2023-08-06T13:51:52;3.67;;;2.00;;
40162;SDS011;25881;47.462;19.304;2023-08-06T13:54:18;2.00;;;1.80;;
40162;SDS011;25881;47.462;19.304;2023-08-06T13:56:45;1.93;;;1.73;;
40162;SDS011;25881;47.462;19.304;2023-08-06T13:59:11;1.60;;;1.50;;
40162;SDS011;25881;47.462;19.304;2023-08-06T14:01:39;3.70;;;1.95;;
40162;SDS011;25881;47.462;19.304;2023-08-06T14:04:04;1.60;;;1.50;;
40162;SDS011;25881;47.462;19.304;2023-08-06T14:06:30;1.52;;;1.42;;
40162;SDS011;25881;47.462;19.304;2023-08-06T14:08:57;1.60;;;1.50;;
40162;SDS011;25881;47.462;19.304;2023-08-06T14:11:22;2.67;;;1.70;;
40162;SDS011;25881;47.462;19.304;2023-08-06T14:13:48;2.28;;;1.90;;
40162;SDS011;25881;47.462;19.304;2023-08-06T14:16:13;1.95;;;1.75;;
40162;SDS011;25881;47.462;19.304;2023-08-06T14:18:39;1.48;;;1.38;;
40162;SDS011;25881;47.462;19.304;2023-08-06T14:21:06;1.67;;;1.45;;
40162;SDS011;25881;47.462;19.304;2023-08-06T14:23:31;2.05;;;1.50;;
40162;SDS011;25881;47.462;19.304;2023-08-06T14:25:57;2.43;;;1.70;;
40162;SDS011;25881;47.462;19.304;2023-08-06T14:28:22;2.80;;;1.83;;
40162;SDS011;25881;47.462;19.304;2023-08-06T14:30:48;4.18;;;1.75;;
40162;SDS011;25881;47.462;19.304;2023-08-06T14:33:13;2.67;;;2.10;;